sensor_id;sensor_type;location;lat;lon;timestamp;temperature;humidity
27128;DHT22;14660;49.008;8.390;2023-03-16T00:00:05;5.30;99.90
27128;DHT22;14660;49.008;8.390;2023-03-16T00:02:35;5.50;99.90
27128;DHT22;14660;49.008;8.390;2023-03-16T00:05:03;5.40;99.90
27128;DHT22;14660;49.008;8.390;2023-03-16T00:07:30;5.30;99.90
27128;DHT22;14660;49.008;8.390;2023-03-16T00:09:57;5.40;99.90
27128;DHT22;14660;49.008;8.390;2023-03-16T00:12:23;5.10;99.90
27128;DHT22;14660;49.008;8.390;2023-03-16T00:14:51;5.20;99.90
27128;DHT22;14660;49.008;8.390;2023-03-16T00:17:20;5.40;99.90
27128;DHT22;14660;49.008;8.390;2023-03-16T00:20:06;5.40;99.90
27128;DHT22;14660;49.008;8.390;2023-03-16T00:22:33;5.10;99.90
27128;DHT22;14660;49.008;8.390;2023-03-16T00:25:01;4.60;99.90
27128;DHT22;14660;49.008;8.390;2023-03-16T00:27:30;4.40;99.90
27128;DHT22;14660;49.008;8.390;2023-03-16T00:29:57;4.30;99.90
27128;DHT22;14660;49.008;8.390;2023-03-16T00:32:29;4.40;99.90
27128;DHT22;14660;49.008;8.390;2023-03-16T00:34:57;4.60;99.90
27128;DHT22;14660;49.008;8.390;2023-03-16T00:37:26;4.50;99.90
27128;DHT22;14660;49.008;8.390;2023-03-16T00:39:53;4.30;99.90
27128;DHT22;14660;49.008;8.390;2023-03-16T00:42:22;4.40;99.90
27128;DHT22;14660;49.008;8.390;2023-03-16T00:44:54;4.30;99.90
27128;DHT22;14660;49.008;8.390;2023-03-16T00:47:25;4.60;99.90
27128;DHT22;14660;49.008;8.390;2023-03-16T00:49:53;4.70;99.90
27128;DHT22;14660;49.008;8.390;2023-03-16T00:52:20;4.60;99.90
27128;DHT22;14660;49.008;8.390;2023-03-16T00:54:49;4.60;99.90
27128;DHT22;14660;49.008;8.390;2023-03-16T00:57:20;4.60;99.90
27128;DHT22;14660;49.008;8.390;2023-03-16T00:59:47;4.70;99.90
27128;DHT22;14660;49.008;8.390;2023-03-16T01:02:15;4.70;99.90
27128;DHT22;14660;49.008;8.390;2023-03-16T01:04:42;4.70;99.90
27128;DHT22;14660;49.008;8.390;2023-03-16T01:07:12;4.70;99.90
27128;DHT22;14660;49.008;8.390;2023-03-16T01:09:40;4.50;99.90
27128;DHT22;14660;49.008;8.390;2023-03-16T01:12:11;4.40;99.90
27128;DHT22;14660;49.008;8.390;2023-03-16T01:14:38;4.30;99.90
27128;DHT22;14660;49.008;8.390;2023-03-16T01:17:07;4.30;99.90
27128;DHT22;14660;49.008;8.390;2023-03-16T01:19:36;4.40;99.90
27128;DHT22;14660;49.008;8.390;2023-03-16T01:22:04;4.20;99.90
27128;DHT22;14660;49.008;8.390;2023-03-16T01:24:32;4.30;99.90
27128;DHT22;14660;49.008;8.390;2023-03-16T01:27:02;4.40;99.90
27128;DHT22;14660;49.008;8.390;2023-03-16T01:29:30;4.40;99.90
27128;DHT22;14660;49.008;8.390;2023-03-16T01:31:57;4.30;99.90
27128;DHT22;14660;49.008;8.390;2023-03-16T01:34:23;4.40;99.90
27128;DHT22;14660;49.008;8.390;2023-03-16T01:36:50;4.50;99.90
27128;DHT22;14660;49.008;8.390;2023-03-16T01:39:17;4.80;99.90
27128;DHT22;14660;49.008;8.390;2023-03-16T01:41:45;4.80;99.90
27128;DHT22;14660;49.008;8.390;2023-03-16T01:44:15;4.70;99.90
27128;DHT22;14660;49.008;8.390;2023-03-16T01:46:42;4.60;99.90
27128;DHT22;14660;49.008;8.390;2023-03-16T01:49:29;4.60;99.90
27128;DHT22;14660;49.008;8.390;2023-03-16T01:52:18;4.80;99.90
27128;DHT22;14660;49.008;8.390;2023-03-16T01:55:05;4.60;99.90
27128;DHT22;14660;49.008;8.390;2023-03-16T01:57:36;4.50;99.90
27128;DHT22;14660;49.008;8.390;2023-03-16T02:00:11;4.50;99.90
27128;DHT22;14660;49.008;8.390;2023-03-16T02:02:49;4.50;99.90
27128;DHT22;14660;49.008;8.390;2023-03-16T02:05:29;4.20;99.90
27128;DHT22;14660;49.008;8.390;2023-03-16T02:07:59;4.10;99.90
27128;DHT22;14660;49.008;8.390;2023-03-16T02:10:27;4.10;99.90
27128;DHT22;14660;49.008;8.390;2023-03-16T02:12:54;4.30;99.90
27128;DHT22;14660;49.008;8.390;2023-03-16T02:15:21;4.20;99.90
27128;DHT22;14660;49.008;8.390;2023-03-16T02:17:48;4.20;99.90
27128;DHT22;14660;49.008;8.390;2023-03-16T02:23:20;4.00;99.90
27128;DHT22;14660;49.008;8.390;2023-03-16T02:31:57;4.10;99.90
27128;DHT22;14660;49.008;8.390;2023-03-16T02:34:24;4.40;99.90
27128;DHT22;14660;49.008;8.390;2023-03-16T02:36:52;4.60;99.90
27128;DHT22;14660;49.008;8.390;2023-03-16T02:39:20;4.70;99.90
27128;DHT22;14660;49.008;8.390;2023-03-16T02:41:46;4.60;99.90
27128;DHT22;14660;49.008;8.390;2023-03-16T02:44:21;4.60;99.90
27128;DHT22;14660;49.008;8.390;2023-03-16T02:46:53;4.60;99.90
27128;DHT22;14660;49.008;8.390;2023-03-16T02:49:35;4.50;99.90
27128;DHT22;14660;49.008;8.390;2023-03-16T02:52:03;4.50;99.90
27128;DHT22;14660;49.008;8.390;2023-03-16T02:54:30;4.40;99.90
27128;DHT22;14660;49.008;8.390;2023-03-16T02:56:57;4.30;99.90
27128;DHT22;14660;49.008;8.390;2023-03-16T02:59:24;4.40;99.90
27128;DHT22;14660;49.008;8.390;2023-03-16T03:01:51;4.60;99.90
27128;DHT22;14660;49.008;8.390;2023-03-16T03:04:19;4.70;99.90
27128;DHT22;14660;49.008;8.390;2023-03-16T03:06:50;4.70;99.90
27128;DHT22;14660;49.008;8.390;2023-03-16T03:09:17;4.70;99.90
27128;DHT22;14660;49.008;8.390;2023-03-16T03:11:44;4.60;99.90
27128;DHT22;14660;49.008;8.390;2023-03-16T03:14:14;4.60;99.90
27128;DHT22;14660;49.008;8.390;2023-03-16T03:16:41;4.30;99.90
27128;DHT22;14660;49.008;8.390;2023-03-16T03:19:08;4.40;99.90
27128;DHT22;14660;49.008;8.390;2023-03-16T03:21:34;4.30;99.90
27128;DHT22;14660;49.008;8.390;2023-03-16T03:24:01;4.40;99.90
27128;DHT22;14660;49.008;8.390;2023-03-16T03:26:28;4.40;99.90
27128;DHT22;14660;49.008;8.390;2023-03-16T03:28:55;4.30;99.90
27128;DHT22;14660;49.008;8.390;2023-03-16T03:31:22;4.50;99.90
27128;DHT22;14660;49.008;8.390;2023-03-16T03:33:49;4.60;99.90
27128;DHT22;14660;49.008;8.390;2023-03-16T03:36:15;4.60;99.90
27128;DHT22;14660;49.008;8.390;2023-03-16T03:38:42;4.60;99.90
27128;DHT22;14660;49.008;8.390;2023-03-16T03:41:10;4.50;99.90
27128;DHT22;14660;49.008;8.390;2023-03-16T03:43:37;4.50;99.90
27128;DHT22;14660;49.008;8.390;2023-03-16T03:46:03;4.50;99.90
27128;DHT22;14660;49.008;8.390;2023-03-16T03:48:30;4.40;99.90
27128;DHT22;14660;49.008;8.390;2023-03-16T03:50:57;4.30;99.90
27128;DHT22;14660;49.008;8.390;2023-03-16T03:53:24;4.20;99.90
27128;DHT22;14660;49.008;8.390;2023-03-16T03:55:50;4.30;99.90
27128;DHT22;14660;49.008;8.390;2023-03-16T03:58:17;4.20;99.90
27128;DHT22;14660;49.008;8.390;2023-03-16T04:00:44;4.30;99.90
27128;DHT22;14660;49.008;8.390;2023-03-16T04:03:11;4.20;99.90
27128;DHT22;14660;49.008;8.390;2023-03-16T04:05:37;4.30;99.90
27128;DHT22;14660;49.008;8.390;2023-03-16T04:08:05;4.30;99.90
27128;DHT22;14660;49.008;8.390;2023-03-16T04:10:31;4.30;99.90
27128;DHT22;14660;49.008;8.390;2023-03-16T04:12:59;4.40;99.90
27128;DHT22;14660;49.008;8.390;2023-03-16T04:15:26;4.20;99.90
27128;DHT22;14660;49.008;8.390;2023-03-16T04:17:53;4.30;99.90
27128;DHT22;14660;49.008;8.390;2023-03-16T04:20:20;4.20;99.90
27128;DHT22;14660;49.008;8.390;2023-03-16T04:22:48;4.20;99.90
27128;DHT22;14660;49.008;8.390;2023-03-16T04:25:16;4.30;99.90
27128;DHT22;14660;49.008;8.390;2023-03-16T04:27:43;4.30;99.90
27128;DHT22;14660;49.008;8.390;2023-03-16T04:30:14;4.30;99.90
27128;DHT22;14660;49.008;8.390;2023-03-16T04:32:40;4.30;99.90
27128;DHT22;14660;49.008;8.390;2023-03-16T04:35:08;4.40;99.90
27128;DHT22;14660;49.008;8.390;2023-03-16T04:37:35;4.40;99.90
27128;DHT22;14660;49.008;8.390;2023-03-16T04:40:04;4.50;99.90
27128;DHT22;14660;49.008;8.390;2023-03-16T04:42:36;4.40;99.90
27128;DHT22;14660;49.008;8.390;2023-03-16T04:45:04;4.40;99.90
27128;DHT22;14660;49.008;8.390;2023-03-16T04:47:32;4.50;99.90
27128;DHT22;14660;49.008;8.390;2023-03-16T04:50:03;4.50;99.90
27128;DHT22;14660;49.008;8.390;2023-03-16T04:52:29;4.50;99.90
27128;DHT22;14660;49.008;8.390;2023-03-16T04:54:58;4.70;99.90
27128;DHT22;14660;49.008;8.390;2023-03-16T04:57:25;4.50;99.90
27128;DHT22;14660;49.008;8.390;2023-03-16T04:59:51;4.60;99.90
27128;DHT22;14660;49.008;8.390;2023-03-16T05:02:24;4.40;99.90
27128;DHT22;14660;49.008;8.390;2023-03-16T05:04:50;4.50;99.90
27128;DHT22;14660;49.008;8.390;2023-03-16T05:07:17;4.40;99.90
27128;DHT22;14660;49.008;8.390;2023-03-16T05:09:44;4.50;99.90
27128;DHT22;14660;49.008;8.390;2023-03-16T05:12:11;4.40;99.90
27128;DHT22;14660;49.008;8.390;2023-03-16T05:14:38;4.30;99.90
27128;DHT22;14660;49.008;8.390;2023-03-16T05:17:04;4.50;99.90
27128;DHT22;14660;49.008;8.390;2023-03-16T05:19:31;4.60;99.90
27128;DHT22;14660;49.008;8.390;2023-03-16T05:21:58;4.60;99.90
27128;DHT22;14660;49.008;8.390;2023-03-16T05:24:25;4.50;99.90
27128;DHT22;14660;49.008;8.390;2023-03-16T05:26:52;4.40;99.90
27128;DHT22;14660;49.008;8.390;2023-03-16T05:29:18;4.20;99.90
27128;DHT22;14660;49.008;8.390;2023-03-16T05:31:45;3.90;99.90
27128;DHT22;14660;49.008;8.390;2023-03-16T05:34:13;3.60;99.90
27128;DHT22;14660;49.008;8.390;2023-03-16T05:36:42;3.60;99.90
27128;DHT22;14660;49.008;8.390;2023-03-16T05:39:12;3.80;99.90
27128;DHT22;14660;49.008;8.390;2023-03-16T05:41:39;3.50;99.90
27128;DHT22;14660;49.008;8.390;2023-03-16T05:44:06;3.60;99.90
27128;DHT22;14660;49.008;8.390;2023-03-16T05:46:33;3.60;99.90
27128;DHT22;14660;49.008;8.390;2023-03-16T05:49:02;3.60;99.90
27128;DHT22;14660;49.008;8.390;2023-03-16T05:51:29;3.50;99.90
27128;DHT22;14660;49.008;8.390;2023-03-16T05:53:55;3.60;99.90
27128;DHT22;14660;49.008;8.390;2023-03-16T05:56:25;3.50;99.90
27128;DHT22;14660;49.008;8.390;2023-03-16T05:58:54;3.60;99.90
27128;DHT22;14660;49.008;8.390;2023-03-16T06:01:21;3.60;99.90
27128;DHT22;14660;49.008;8.390;2023-03-16T06:03:49;3.50;99.90
27128;DHT22;14660;49.008;8.390;2023-03-16T06:06:18;3.60;99.90
27128;DHT22;14660;49.008;8.390;2023-03-16T06:08:45;3.70;99.90
27128;DHT22;14660;49.008;8.390;2023-03-16T06:11:14;3.80;99.90
27128;DHT22;14660;49.008;8.390;2023-03-16T06:13:42;3.60;99.90
27128;DHT22;14660;49.008;8.390;2023-03-16T06:16:11;3.40;99.90
27128;DHT22;14660;49.008;8.390;2023-03-16T06:18:40;3.60;99.90
27128;DHT22;14660;49.008;8.390;2023-03-16T06:21:07;3.70;99.90
27128;DHT22;14660;49.008;8.390;2023-03-16T06:23:33;3.90;99.90
27128;DHT22;14660;49.008;8.390;2023-03-16T06:26:01;4.00;99.90
27128;DHT22;14660;49.008;8.390;2023-03-16T06:28:29;4.10;99.90
27128;DHT22;14660;49.008;8.390;2023-03-16T06:30:57;4.10;99.90
27128;DHT22;14660;49.008;8.390;2023-03-16T06:33:24;4.20;99.90
27128;DHT22;14660;49.008;8.390;2023-03-16T06:35:51;4.30;99.90
27128;DHT22;14660;49.008;8.390;2023-03-16T06:38:18;4.40;99.90
27128;DHT22;14660;49.008;8.390;2023-03-16T06:40:49;4.60;99.90
27128;DHT22;14660;49.008;8.390;2023-03-16T06:43:16;4.70;99.90
27128;DHT22;14660;49.008;8.390;2023-03-16T06:45:43;4.60;99.90
27128;DHT22;14660;49.008;8.390;2023-03-16T06:48:10;4.60;99.90
27128;DHT22;14660;49.008;8.390;2023-03-16T06:50:38;4.80;99.90
27128;DHT22;14660;49.008;8.390;2023-03-16T06:53:05;5.00;99.90
27128;DHT22;14660;49.008;8.390;2023-03-16T06:55:32;5.20;99.90
27128;DHT22;14660;49.008;8.390;2023-03-16T06:57:59;5.40;99.90
27128;DHT22;14660;49.008;8.390;2023-03-16T07:00:28;5.50;99.90
27128;DHT22;14660;49.008;8.390;2023-03-16T07:02:56;5.60;99.90
27128;DHT22;14660;49.008;8.390;2023-03-16T07:05:23;5.80;99.90
27128;DHT22;14660;49.008;8.390;2023-03-16T07:07:49;5.80;99.90
27128;DHT22;14660;49.008;8.390;2023-03-16T07:10:17;5.90;99.90
27128;DHT22;14660;49.008;8.390;2023-03-16T07:12:44;6.10;99.90
27128;DHT22;14660;49.008;8.390;2023-03-16T07:15:13;6.10;99.90
27128;DHT22;14660;49.008;8.390;2023-03-16T07:17:39;6.20;99.90
27128;DHT22;14660;49.008;8.390;2023-03-16T07:20:08;6.30;99.90
27128;DHT22;14660;49.008;8.390;2023-03-16T07:22:44;6.40;99.90
27128;DHT22;14660;49.008;8.390;2023-03-16T07:25:11;6.60;99.90
27128;DHT22;14660;49.008;8.390;2023-03-16T07:27:40;6.50;99.90
27128;DHT22;14660;49.008;8.390;2023-03-16T07:30:10;6.70;99.90
27128;DHT22;14660;49.008;8.390;2023-03-16T07:32:41;6.90;99.90
27128;DHT22;14660;49.008;8.390;2023-03-16T07:35:09;7.00;99.90
27128;DHT22;14660;49.008;8.390;2023-03-16T07:37:37;7.10;99.90
27128;DHT22;14660;49.008;8.390;2023-03-16T07:40:04;7.20;99.90
27128;DHT22;14660;49.008;8.390;2023-03-16T07:42:32;7.00;99.90
27128;DHT22;14660;49.008;8.390;2023-03-16T07:45:02;7.20;99.90
27128;DHT22;14660;49.008;8.390;2023-03-16T07:47:29;7.30;99.90
27128;DHT22;14660;49.008;8.390;2023-03-16T07:49:57;7.50;99.90
27128;DHT22;14660;49.008;8.390;2023-03-16T07:52:24;7.50;99.90
27128;DHT22;14660;49.008;8.390;2023-03-16T07:54:52;7.60;99.90
27128;DHT22;14660;49.008;8.390;2023-03-16T07:57:19;7.50;99.90
27128;DHT22;14660;49.008;8.390;2023-03-16T07:59:46;7.50;99.90
27128;DHT22;14660;49.008;8.390;2023-03-16T08:02:15;7.50;99.90
27128;DHT22;14660;49.008;8.390;2023-03-16T08:04:43;7.70;99.90
27128;DHT22;14660;49.008;8.390;2023-03-16T08:07:10;7.90;99.90
27128;DHT22;14660;49.008;8.390;2023-03-16T08:09:37;8.00;99.90
27128;DHT22;14660;49.008;8.390;2023-03-16T08:12:06;8.20;99.90
27128;DHT22;14660;49.008;8.390;2023-03-16T08:14:35;8.00;99.90
27128;DHT22;14660;49.008;8.390;2023-03-16T08:17:03;8.00;99.90
27128;DHT22;14660;49.008;8.390;2023-03-16T08:19:34;7.90;99.90
27128;DHT22;14660;49.008;8.390;2023-03-16T08:22:01;7.90;99.90
27128;DHT22;14660;49.008;8.390;2023-03-16T08:24:30;7.90;99.90
27128;DHT22;14660;49.008;8.390;2023-03-16T08:26:57;8.20;99.90
27128;DHT22;14660;49.008;8.390;2023-03-16T08:29:25;8.30;99.90
27128;DHT22;14660;49.008;8.390;2023-03-16T08:31:55;8.20;99.90
27128;DHT22;14660;49.008;8.390;2023-03-16T08:34:23;8.40;99.90
27128;DHT22;14660;49.008;8.390;2023-03-16T08:36:50;8.50;99.90
27128;DHT22;14660;49.008;8.390;2023-03-16T08:39:18;8.60;99.90
27128;DHT22;14660;49.008;8.390;2023-03-16T08:41:46;8.70;99.90
27128;DHT22;14660;49.008;8.390;2023-03-16T08:44:15;8.70;99.90
27128;DHT22;14660;49.008;8.390;2023-03-16T08:46:43;8.70;99.90
27128;DHT22;14660;49.008;8.390;2023-03-16T08:49:10;8.70;99.90
27128;DHT22;14660;49.008;8.390;2023-03-16T08:51:39;8.80;99.90
27128;DHT22;14660;49.008;8.390;2023-03-16T08:54:06;8.90;99.90
27128;DHT22;14660;49.008;8.390;2023-03-16T08:56:34;9.00;99.90
27128;DHT22;14660;49.008;8.390;2023-03-16T08:59:01;9.10;99.90
27128;DHT22;14660;49.008;8.390;2023-03-16T09:01:28;9.20;99.90
27128;DHT22;14660;49.008;8.390;2023-03-16T09:03:55;9.30;99.90
27128;DHT22;14660;49.008;8.390;2023-03-16T09:06:22;9.20;99.90
27128;DHT22;14660;49.008;8.390;2023-03-16T09:08:50;9.20;99.90
27128;DHT22;14660;49.008;8.390;2023-03-16T09:11:18;9.30;99.90
27128;DHT22;14660;49.008;8.390;2023-03-16T09:13:47;9.20;99.90
27128;DHT22;14660;49.008;8.390;2023-03-16T09:16:15;9.20;99.90
27128;DHT22;14660;49.008;8.390;2023-03-16T09:18:42;9.40;99.90
27128;DHT22;14660;49.008;8.390;2023-03-16T09:21:10;9.50;99.90
27128;DHT22;14660;49.008;8.390;2023-03-16T09:23:40;9.40;99.90
27128;DHT22;14660;49.008;8.390;2023-03-16T09:26:10;9.60;99.90
27128;DHT22;14660;49.008;8.390;2023-03-16T09:28:38;9.70;99.90
27128;DHT22;14660;49.008;8.390;2023-03-16T09:31:12;9.70;99.90
27128;DHT22;14660;49.008;8.390;2023-03-16T09:33:41;9.80;99.90
27128;DHT22;14660;49.008;8.390;2023-03-16T09:36:08;9.80;99.90
27128;DHT22;14660;49.008;8.390;2023-03-16T09:38:37;9.80;99.90
27128;DHT22;14660;49.008;8.390;2023-03-16T09:47:11;10.10;99.90
27128;DHT22;14660;49.008;8.390;2023-03-16T09:49:45;10.10;99.90
27128;DHT22;14660;49.008;8.390;2023-03-16T09:52:36;10.00;99.90
27128;DHT22;14660;49.008;8.390;2023-03-16T09:58:15;10.20;99.90
27128;DHT22;14660;49.008;8.390;2023-03-16T10:00:54;10.10;99.90
27128;DHT22;14660;49.008;8.390;2023-03-16T10:06:27;10.20;99.90
27128;DHT22;14660;49.008;8.390;2023-03-16T10:09:17;10.30;99.90
27128;DHT22;14660;49.008;8.390;2023-03-16T10:11:51;10.20;99.90
27128;DHT22;14660;49.008;8.390;2023-03-16T10:17:32;10.20;99.90
27128;DHT22;14660;49.008;8.390;2023-03-16T10:20:22;10.20;99.90
27128;DHT22;14660;49.008;8.390;2023-03-16T10:22:53;10.30;99.90
27128;DHT22;14660;49.008;8.390;2023-03-16T10:25:49;10.40;99.90
27128;DHT22;14660;49.008;8.390;2023-03-16T10:28:22;10.40;99.90
27128;DHT22;14660;49.008;8.390;2023-03-16T10:30:52;10.40;99.90
27128;DHT22;14660;49.008;8.390;2023-03-16T10:33:37;10.40;99.90
27128;DHT22;14660;49.008;8.390;2023-03-16T10:39:11;10.50;99.90
27128;DHT22;14660;49.008;8.390;2023-03-16T10:41:42;10.40;99.90
27128;DHT22;14660;49.008;8.390;2023-03-16T10:44:28;10.60;99.90
27128;DHT22;14660;49.008;8.390;2023-03-16T10:47:04;10.60;99.90
27128;DHT22;14660;49.008;8.390;2023-03-16T10:49:50;10.70;99.90
27128;DHT22;14660;49.008;8.390;2023-03-16T10:55:31;11.00;99.90
27128;DHT22;14660;49.008;8.390;2023-03-16T10:58:08;10.80;99.90
27128;DHT22;14660;49.008;8.390;2023-03-16T11:00:40;10.80;99.90
27128;DHT22;14660;49.008;8.390;2023-03-16T11:03:38;10.90;99.90
27128;DHT22;14660;49.008;8.390;2023-03-16T11:06:14;10.90;99.90
27128;DHT22;14660;49.008;8.390;2023-03-16T11:08:42;11.20;99.90
27128;DHT22;14660;49.008;8.390;2023-03-16T11:11:29;11.20;99.90
27128;DHT22;14660;49.008;8.390;2023-03-16T11:14:11;11.30;99.90
27128;DHT22;14660;49.008;8.390;2023-03-16T11:16:58;11.60;99.90
27128;DHT22;14660;49.008;8.390;2023-03-16T11:19:46;11.80;99.90
27128;DHT22;14660;49.008;8.390;2023-03-16T11:22:16;12.00;99.90
27128;DHT22;14660;49.008;8.390;2023-03-16T11:24:54;11.90;99.90
27128;DHT22;14660;49.008;8.390;2023-03-16T11:27:32;11.90;99.90
27128;DHT22;14660;49.008;8.390;2023-03-16T11:32:51;12.10;99.90
27128;DHT22;14660;49.008;8.390;2023-03-16T11:35:21;12.20;99.90
27128;DHT22;14660;49.008;8.390;2023-03-16T11:41:16;12.10;99.90
27128;DHT22;14660;49.008;8.390;2023-03-16T11:44:26;12.10;99.90
27128;DHT22;14660;49.008;8.390;2023-03-16T11:47:23;12.00;99.90
27128;DHT22;14660;49.008;8.390;2023-03-16T11:59:17;12.10;99.90
27128;DHT22;14660;49.008;8.390;2023-03-16T12:14:16;12.10;99.90
27128;DHT22;14660;49.008;8.390;2023-03-16T12:23:13;12.20;99.90
27128;DHT22;14660;49.008;8.390;2023-03-16T12:25:44;12.20;99.90
27128;DHT22;14660;49.008;8.390;2023-03-16T12:28:22;12.10;99.90
27128;DHT22;14660;49.008;8.390;2023-03-16T12:49:25;12.20;99.90
27128;DHT22;14660;49.008;8.390;2023-03-16T12:52:03;12.20;99.90
27128;DHT22;14660;49.008;8.390;2023-03-16T12:54:31;12.20;99.90
27128;DHT22;14660;49.008;8.390;2023-03-16T12:57:07;12.20;99.90
27128;DHT22;14660;49.008;8.390;2023-03-16T12:59:54;12.30;99.90
27128;DHT22;14660;49.008;8.390;2023-03-16T13:02:30;12.40;99.90
27128;DHT22;14660;49.008;8.390;2023-03-16T13:05:27;12.40;99.90
27128;DHT22;14660;49.008;8.390;2023-03-16T13:08:16;12.50;99.90
27128;DHT22;14660;49.008;8.390;2023-03-16T13:11:04;12.40;99.90
27128;DHT22;14660;49.008;8.390;2023-03-16T13:13:30;12.40;99.90
27128;DHT22;14660;49.008;8.390;2023-03-16T13:16:07;12.50;99.90
27128;DHT22;14660;49.008;8.390;2023-03-16T13:18:41;12.70;99.90
27128;DHT22;14660;49.008;8.390;2023-03-16T13:24:33;12.70;99.90
27128;DHT22;14660;49.008;8.390;2023-03-16T13:27:03;12.70;99.90
27128;DHT22;14660;49.008;8.390;2023-03-16T13:29:32;12.70;99.90
27128;DHT22;14660;49.008;8.390;2023-03-16T13:32:07;12.70;99.90
27128;DHT22;14660;49.008;8.390;2023-03-16T13:35:03;12.90;99.90
27128;DHT22;14660;49.008;8.390;2023-03-16T13:37:31;12.90;99.90
27128;DHT22;14660;49.008;8.390;2023-03-16T13:40:00;12.80;99.90
27128;DHT22;14660;49.008;8.390;2023-03-16T13:42:31;12.80;99.90
27128;DHT22;14660;49.008;8.390;2023-03-16T13:45:14;12.80;99.90
27128;DHT22;14660;49.008;8.390;2023-03-16T13:47:46;12.80;99.90
27128;DHT22;14660;49.008;8.390;2023-03-16T13:50:14;12.80;99.90
27128;DHT22;14660;49.008;8.390;2023-03-16T13:52:41;13.00;99.90
27128;DHT22;14660;49.008;8.390;2023-03-16T13:55:25;13.00;99.90
27128;DHT22;14660;49.008;8.390;2023-03-16T13:57:52;13.10;99.90
27128;DHT22;14660;49.008;8.390;2023-03-16T14:00:42;13.20;99.90
27128;DHT22;14660;49.008;8.390;2023-03-16T14:03:19;13.20;99.90
27128;DHT22;14660;49.008;8.390;2023-03-16T14:05:47;13.30;99.90
27128;DHT22;14660;49.008;8.390;2023-03-16T14:08:21;13.30;99.90
27128;DHT22;14660;49.008;8.390;2023-03-16T14:10:50;13.40;99.90
27128;DHT22;14660;49.008;8.390;2023-03-16T14:13:34;13.50;99.90
27128;DHT22;14660;49.008;8.390;2023-03-16T14:16:23;13.60;99.90
27128;DHT22;14660;49.008;8.390;2023-03-16T14:19:20;13.70;99.90
27128;DHT22;14660;49.008;8.390;2023-03-16T14:21:53;13.70;99.90
27128;DHT22;14660;49.008;8.390;2023-03-16T14:24:39;13.80;99.90
27128;DHT22;14660;49.008;8.390;2023-03-16T14:33:29;13.90;99.90
27128;DHT22;14660;49.008;8.390;2023-03-16T14:36:05;13.90;99.90
27128;DHT22;14660;49.008;8.390;2023-03-16T14:38:35;13.90;99.90
27128;DHT22;14660;49.008;8.390;2023-03-16T14:41:23;13.90;99.90
27128;DHT22;14660;49.008;8.390;2023-03-16T14:43:57;13.90;99.90
27128;DHT22;14660;49.008;8.390;2023-03-16T14:46:43;14.00;99.90
27128;DHT22;14660;49.008;8.390;2023-03-16T14:49:34;14.00;99.90
27128;DHT22;14660;49.008;8.390;2023-03-16T14:52:26;14.00;99.90
27128;DHT22;14660;49.008;8.390;2023-03-16T14:54:55;14.00;99.90
27128;DHT22;14660;49.008;8.390;2023-03-16T14:57:21;14.10;99.90
27128;DHT22;14660;49.008;8.390;2023-03-16T14:59:48;14.20;99.90
27128;DHT22;14660;49.008;8.390;2023-03-16T15:02:24;14.20;99.90
27128;DHT22;14660;49.008;8.390;2023-03-16T15:04:53;14.20;99.90
27128;DHT22;14660;49.008;8.390;2023-03-16T15:07:39;14.30;99.90
27128;DHT22;14660;49.008;8.390;2023-03-16T15:10:30;14.10;99.90
27128;DHT22;14660;49.008;8.390;2023-03-16T15:12:59;14.20;99.90
27128;DHT22;14660;49.008;8.390;2023-03-16T15:15:39;14.20;99.90
27128;DHT22;14660;49.008;8.390;2023-03-16T15:18:08;14.10;99.90
27128;DHT22;14660;49.008;8.390;2023-03-16T15:20:43;14.10;99.90
27128;DHT22;14660;49.008;8.390;2023-03-16T15:23:16;13.90;99.90
27128;DHT22;14660;49.008;8.390;2023-03-16T15:25:45;14.00;99.90
27128;DHT22;14660;49.008;8.390;2023-03-16T15:28:32;13.90;99.90
27128;DHT22;14660;49.008;8.390;2023-03-16T15:31:01;14.10;99.90
27128;DHT22;14660;49.008;8.390;2023-03-16T15:33:28;14.10;99.90
27128;DHT22;14660;49.008;8.390;2023-03-16T15:35:58;14.00;99.90
27128;DHT22;14660;49.008;8.390;2023-03-16T15:38:46;14.00;99.90
27128;DHT22;14660;49.008;8.390;2023-03-16T15:41:13;13.90;99.90
27128;DHT22;14660;49.008;8.390;2023-03-16T15:43:39;14.00;99.90
27128;DHT22;14660;49.008;8.390;2023-03-16T15:46:06;13.90;99.90
27128;DHT22;14660;49.008;8.390;2023-03-16T15:48:33;13.90;99.90
27128;DHT22;14660;49.008;8.390;2023-03-16T15:51:24;13.90;99.90
27128;DHT22;14660;49.008;8.390;2023-03-16T15:54:07;14.00;99.90
27128;DHT22;14660;49.008;8.390;2023-03-16T15:56:37;14.10;99.90
27128;DHT22;14660;49.008;8.390;2023-03-16T15:59:12;14.00;99.90
27128;DHT22;14660;49.008;8.390;2023-03-16T16:01:46;13.90;99.90
27128;DHT22;14660;49.008;8.390;2023-03-16T16:04:20;14.00;99.90
27128;DHT22;14660;49.008;8.390;2023-03-16T16:06:51;13.90;99.90
27128;DHT22;14660;49.008;8.390;2023-03-16T16:09:22;14.00;99.90
27128;DHT22;14660;49.008;8.390;2023-03-16T16:11:58;13.90;99.90
27128;DHT22;14660;49.008;8.390;2023-03-16T16:14:26;13.90;99.90
27128;DHT22;14660;49.008;8.390;2023-03-16T16:16:53;13.80;99.90
27128;DHT22;14660;49.008;8.390;2023-03-16T16:19:20;13.90;99.90
27128;DHT22;14660;49.008;8.390;2023-03-16T16:21:48;13.90;99.90
27128;DHT22;14660;49.008;8.390;2023-03-16T16:24:16;13.80;99.90
27128;DHT22;14660;49.008;8.390;2023-03-16T16:26:45;13.70;99.90
27128;DHT22;14660;49.008;8.390;2023-03-16T16:29:21;13.60;99.90
27128;DHT22;14660;49.008;8.390;2023-03-16T16:31:49;13.60;99.90
27128;DHT22;14660;49.008;8.390;2023-03-16T16:34:22;13.60;99.90
27128;DHT22;14660;49.008;8.390;2023-03-16T16:36:54;13.60;99.90
27128;DHT22;14660;49.008;8.390;2023-03-16T16:39:21;13.50;99.90
27128;DHT22;14660;49.008;8.390;2023-03-16T16:41:50;13.40;99.90
27128;DHT22;14660;49.008;8.390;2023-03-16T16:44:26;13.40;99.90
27128;DHT22;14660;49.008;8.390;2023-03-16T16:47:04;13.40;99.90
27128;DHT22;14660;49.008;8.390;2023-03-16T16:49:32;13.20;99.90
27128;DHT22;14660;49.008;8.390;2023-03-16T16:52:02;13.40;99.90
27128;DHT22;14660;49.008;8.390;2023-03-16T16:54:30;13.40;99.90
27128;DHT22;14660;49.008;8.390;2023-03-16T16:56:58;13.40;99.90
27128;DHT22;14660;49.008;8.390;2023-03-16T16:59:28;13.20;99.90
27128;DHT22;14660;49.008;8.390;2023-03-16T17:01:57;13.30;99.90
27128;DHT22;14660;49.008;8.390;2023-03-16T17:04:27;13.30;99.90
27128;DHT22;14660;49.008;8.390;2023-03-16T17:06:57;13.20;99.90
27128;DHT22;14660;49.008;8.390;2023-03-16T17:09:26;13.30;99.90
27128;DHT22;14660;49.008;8.390;2023-03-16T17:11:54;13.20;99.90
27128;DHT22;14660;49.008;8.390;2023-03-16T17:14:25;13.10;99.90
27128;DHT22;14660;49.008;8.390;2023-03-16T17:16:59;13.10;99.90
27128;DHT22;14660;49.008;8.390;2023-03-16T17:19:27;13.00;99.90
27128;DHT22;14660;49.008;8.390;2023-03-16T17:21:56;13.10;99.90
27128;DHT22;14660;49.008;8.390;2023-03-16T17:24:25;13.00;99.90
27128;DHT22;14660;49.008;8.390;2023-03-16T17:26:57;13.00;99.90
27128;DHT22;14660;49.008;8.390;2023-03-16T17:29:32;12.90;99.90
27128;DHT22;14660;49.008;8.390;2023-03-16T17:32:02;12.90;99.90
27128;DHT22;14660;49.008;8.390;2023-03-16T17:34:31;12.80;99.90
27128;DHT22;14660;49.008;8.390;2023-03-16T17:37:02;12.80;99.90